Terminal Aerodrome Forecast
Issued by NWS

Home | Current Version | Previous Version | Text Only | Print | Product List | Glossary On
Versions: 1 2 3 4 5 6 7 8 9 10 11 12 13 14 15
000
FTAK31 PAJN 300700 AAA
TAFAWG
TAF AMD
PAWG 300702Z 3007/3106 15004KT 3SM -SHRA BR BKN020 OVC035
     FM301200 09005KT 1SM BR VCFG SCT020 OVC050
     FM301500 08005KT 6SM BR SCT120
     FM301800 34005KT P6SM SCT120
      AMD LTD TO CLD VIS AND WIND 3006/3015=

USA.gov is the U.S. government's official web portal to all federal, state and local government web resources and services.